Arlington, Minnesota
Current Conditions -  °F | °C
As of 12:13 AM on Thursday 23 Oct 2014 (Local Time) from KGYL Reporting Station
Overcast Overcast  
Wind Chill: 14°   Ceiling: 6000
Heat Index: 14°   Visibility: 10mi
Dew Point:   Wind: 8mph
Humidity: 73%   Direction: 170°S
Pressure: 29.98"   Gusts: NA
Location:  44.61°N, 94.08°W
Report Text: KGYL 230513Z AUTO 17007KT 10SM SCT041 BKN060 OVC110 14/09 A2998 RMK AO2 T01400092
Loading
Personal Weather Stations






























Interactive Weather Map
Tropical Storm Tracking
New forecast layout! Learn more

10-Day Weather Forecast

Advertisements
Track Severe Weather on mobile